createdAt,value
2023-01-09T00:01:34.034Z,97259.44
2023-01-09T00:04:02.387Z,97258.69
2023-01-09T00:06:30.481Z,97263.09
2023-01-09T00:08:58.876Z,97249.91
2023-01-09T00:11:26.980Z,97251.28
2023-01-09T00:13:55.209Z,97252.69
2023-01-09T00:16:23.285Z,97253.56
2023-01-09T00:18:53.498Z,97244.50
2023-01-09T00:21:21.796Z,97243.56
2023-01-09T00:23:49.973Z,97242.47
2023-01-09T00:26:19.870Z,97239.16
2023-01-09T00:28:49.763Z,97247.78
2023-01-09T00:31:19.355Z,97235.50
2023-01-09T00:34:00.232Z,97240.06
2023-01-09T00:36:29.045Z,97236.72
2023-01-09T00:38:57.380Z,97238.22
2023-01-09T00:41:28.802Z,97226.88
2023-01-09T00:44:02.334Z,97237.22
2023-01-09T00:46:37.720Z,97243.28
2023-01-09T00:49:09.279Z,97240.88
2023-01-09T00:51:39.412Z,97237.69
2023-01-09T00:54:07.784Z,97229.53
2023-01-09T00:56:37.271Z,97232.56
2023-01-09T00:59:05.885Z,97243.03
2023-01-09T01:01:34.092Z,97239.88
2023-01-09T01:04:22.548Z,97239.59
2023-01-09T01:07:09.632Z,97229.31
2023-01-09T01:09:37.697Z,97221.28
2023-01-09T01:12:07.398Z,97222.19
2023-01-09T01:14:36.384Z,97204.50
2023-01-09T01:17:05.107Z,97225.75
2023-01-09T01:19:34.114Z,97218.34
2023-01-09T01:22:03.745Z,97219.66
2023-01-09T01:24:31.906Z,97216.19
2023-01-09T01:26:59.960Z,97216.75
2023-01-09T01:29:28.102Z,97215.09
2023-01-09T01:31:56.237Z,97201.91
2023-01-09T01:34:24.445Z,97196.75
2023-01-09T01:36:52.587Z,97193.13
2023-01-09T01:39:22.306Z,97192.06
2023-01-09T01:41:50.365Z,97190.25
2023-01-09T01:44:58.027Z,97190.22
2023-01-09T01:47:30.916Z,97187.34
2023-01-09T01:49:59.538Z,97185.53
2023-01-09T01:52:28.762Z,97186.88
2023-01-09T01:54:58.272Z,97182.50
2023-01-09T01:57:26.584Z,97190.53
2023-01-09T02:00:00.122Z,97168.22
2023-01-09T02:02:32.197Z,97176.22
2023-01-09T02:05:02.774Z,97170.78
2023-01-09T02:07:31.256Z,97166.56
2023-01-09T02:10:01.442Z,97175.66
2023-01-09T02:12:29.905Z,97179.44
2023-01-09T02:15:01.252Z,97176.22
2023-01-09T02:17:57.939Z,97163.66
2023-01-09T02:20:37.277Z,97160.13
2023-01-09T02:23:34.757Z,97160.72
2023-01-09T02:26:24.658Z,97161.19
2023-01-09T02:29:26.304Z,97153.91
2023-01-09T02:32:04.292Z,97170.63
2023-01-09T02:34:40.296Z,97167.22
2023-01-09T02:37:16.803Z,97164.78
2023-01-09T02:39:52.300Z,97158.13
2023-01-09T02:42:23.787Z,97160.25
2023-01-09T02:44:52.674Z,97152.81
2023-01-09T02:47:43.862Z,97161.78
2023-01-09T02:50:16.442Z,97157.06
2023-01-09T02:53:24.544Z,97155.56
2023-01-09T02:56:03.814Z,97157.75
2023-01-09T02:58:44.599Z,97152.88
2023-01-09T03:01:33.429Z,97165.78
2023-01-09T03:04:10.477Z,97171.56
2023-01-09T03:06:48.391Z,97159.25
2023-01-09T03:09:20.357Z,97180.78
2023-01-09T03:11:53.623Z,97179.84
2023-01-09T03:14:25.347Z,97178.94
2023-01-09T03:17:01.461Z,97172.72
2023-01-09T03:19:33.277Z,97170.00
2023-01-09T03:22:01.678Z,97175.84
2023-01-09T03:24:29.845Z,97177.97
2023-01-09T03:26:57.928Z,97165.31
2023-01-09T03:29:27.017Z,97169.69
2023-01-09T03:31:55.884Z,97165.56
2023-01-09T03:34:24.056Z,97159.19
2023-01-09T03:36:53.570Z,97150.72
2023-01-09T03:39:21.627Z,97155.63
2023-01-09T03:41:49.757Z,97144.34
2023-01-09T03:44:17.872Z,97146.00
2023-01-09T03:46:45.917Z,97143.56
2023-01-09T03:49:14.564Z,97135.75
2023-01-09T03:51:42.747Z,97137.69
2023-01-09T03:54:12.216Z,97139.38
2023-01-09T03:56:40.267Z,97133.03
2023-01-09T03:59:08.419Z,97127.28
2023-01-09T04:01:36.528Z,97127.97
2023-01-09T04:04:04.806Z,97119.50
2023-01-09T04:06:33.014Z,97108.47
2023-01-09T04:09:01.139Z,97101.22
2023-01-09T04:11:30.621Z,97103.44
2023-01-09T04:13:58.699Z,97090.78
2023-01-09T04:16:26.904Z,97088.81
2023-01-09T04:18:54.952Z,97089.38
2023-01-09T04:21:23.038Z,97081.94
2023-01-09T04:23:51.124Z,97078.47
2023-01-09T04:26:19.306Z,97075.44
2023-01-09T04:28:49.028Z,97078.06
2023-01-09T04:31:17.384Z,97075.78
2023-01-09T04:33:45.482Z,97076.56
2023-01-09T04:36:13.899Z,97080.69
2023-01-09T04:38:41.970Z,97083.75
2023-01-09T04:41:10.006Z,97074.34
2023-01-09T04:43:38.098Z,97071.56
2023-01-09T04:46:07.634Z,97072.88
2023-01-09T04:48:35.717Z,97068.47
2023-01-09T04:51:03.754Z,97075.25
2023-01-09T04:53:31.931Z,97070.88
2023-01-09T04:56:00.090Z,97067.06
2023-01-09T04:58:28.186Z,97066.50
2023-01-09T05:00:56.414Z,97063.59
2023-01-09T05:03:25.851Z,97057.09
2023-01-09T05:05:53.995Z,97055.13
2023-01-09T05:08:22.097Z,97050.06
2023-01-09T05:10:50.197Z,97054.34
2023-01-09T05:13:18.223Z,97050.50
2023-01-09T05:15:46.392Z,97055.47
2023-01-09T05:18:14.462Z,97046.78
2023-01-09T05:20:43.940Z,97052.97
2023-01-09T05:23:12.020Z,97042.47
2023-01-09T05:25:40.126Z,97033.81
2023-01-09T05:28:08.287Z,97038.34
2023-01-09T05:30:36.437Z,97040.78
2023-01-09T05:33:04.670Z,97050.28
2023-01-09T05:35:32.779Z,97042.47
2023-01-09T05:38:02.414Z,97050.41
2023-01-09T05:40:39.629Z,97045.84
2023-01-09T05:43:08.767Z,97047.16
2023-01-09T05:45:37.228Z,97055.19
2023-01-09T05:48:05.478Z,97045.00
2023-01-09T05:50:33.555Z,97036.81
2023-01-09T05:53:03.292Z,97041.00
2023-01-09T05:55:31.755Z,97040.03
2023-01-09T05:57:59.827Z,97031.50
2023-01-09T06:00:28.082Z,97028.09
2023-01-09T06:02:56.240Z,97031.88
2023-01-09T06:05:24.556Z,97023.69
2023-01-09T06:07:52.607Z,97017.28
2023-01-09T06:10:22.115Z,97029.56
2023-01-09T06:12:51.781Z,97033.31
2023-01-09T06:15:20.684Z,97034.19
2023-01-09T06:17:48.980Z,97025.50
2023-01-09T06:20:17.259Z,97026.66
2023-01-09T06:22:45.918Z,97016.25
2023-01-09T06:25:14.648Z,97017.97
2023-01-09T06:27:44.105Z,97009.31
2023-01-09T06:30:13.353Z,97016.06
2023-01-09T06:32:41.546Z,97011.84
2023-01-09T06:35:10.642Z,97011.19
2023-01-09T06:37:39.034Z,97005.53
2023-01-09T06:40:08.685Z,97003.06
2023-01-09T06:42:36.812Z,97009.75
2023-01-09T06:45:07.348Z,97003.63
2023-01-09T06:47:35.452Z,97007.50
2023-01-09T06:50:03.548Z,97002.63
2023-01-09T06:52:31.712Z,96999.56
2023-01-09T06:54:59.748Z,96992.44
2023-01-09T06:57:27.857Z,97001.38
2023-01-09T06:59:55.982Z,96990.44
2023-01-09T07:02:25.682Z,96987.06
2023-01-09T07:04:53.790Z,96989.41
2023-01-09T07:07:27.955Z,96990.84
2023-01-09T07:09:56.088Z,96984.63
2023-01-09T07:12:24.689Z,96982.53
2023-01-09T07:14:52.803Z,96983.69
2023-01-09T07:17:20.914Z,96976.66
2023-01-09T07:19:50.381Z,96989.03
2023-01-09T07:22:18.703Z,96998.38
2023-01-09T07:24:47.610Z,96994.03
2023-01-09T07:27:15.670Z,96991.94
2023-01-09T07:29:43.801Z,96996.78
2023-01-09T07:32:11.927Z,96989.41
2023-01-09T07:34:40.043Z,96995.00
2023-01-09T07:37:09.736Z,96990.28
2023-01-09T07:39:37.815Z,96986.78
2023-01-09T07:42:05.923Z,96991.13
2023-01-09T07:44:34.256Z,96995.53
2023-01-09T07:47:02.454Z,96992.97
2023-01-09T07:49:30.755Z,96995.41
2023-01-09T07:51:59.017Z,97001.50
2023-01-09T07:54:28.477Z,97009.50
2023-01-09T07:56:57.011Z,97003.38
2023-01-09T07:59:25.051Z,97002.19
2023-01-09T08:01:53.198Z,96993.53
2023-01-09T08:04:21.341Z,96986.81
2023-01-09T08:06:49.656Z,96988.88
2023-01-09T08:09:18.443Z,96988.69
2023-01-09T08:11:47.966Z,96990.38
2023-01-09T08:14:16.181Z,96986.69
2023-01-09T08:16:44.347Z,96981.91
2023-01-09T08:19:12.469Z,96967.75
2023-01-09T08:21:40.641Z,96974.53
2023-01-09T08:24:08.874Z,96969.88
2023-01-09T08:26:36.942Z,96975.97
2023-01-09T08:29:06.623Z,96974.75
2023-01-09T08:31:34.764Z,96974.09
2023-01-09T08:34:02.995Z,96974.34
2023-01-09T08:36:31.090Z,96972.03
2023-01-09T08:38:59.276Z,96971.75
2023-01-09T08:41:44.546Z,96971.00
2023-01-09T08:44:40.143Z,96971.56
2023-01-09T08:47:08.549Z,96974.84
2023-01-09T08:49:38.199Z,96974.56
2023-01-09T08:52:07.636Z,96980.84
2023-01-09T08:54:36.951Z,96982.41
2023-01-09T08:57:05.220Z,96989.34
2023-01-09T08:59:35.090Z,97001.72
2023-01-09T09:02:03.250Z,96999.75
2023-01-09T09:04:31.540Z,96991.72
2023-01-09T09:06:59.649Z,96992.25
2023-01-09T09:09:27.775Z,96975.91
2023-01-09T09:11:55.878Z,96972.28
2023-01-09T09:14:41.620Z,96965.69
2023-01-09T09:17:11.160Z,96966.50
2023-01-09T09:19:42.616Z,96962.56
2023-01-09T09:22:10.875Z,96969.63
2023-01-09T09:24:39.082Z,96967.16
2023-01-09T09:27:07.247Z,96972.19
2023-01-09T09:29:35.286Z,96967.75
2023-01-09T09:32:03.377Z,96972.06
2023-01-09T09:34:33.056Z,96968.09
2023-01-09T09:37:01.437Z,96960.03
2023-01-09T09:39:29.574Z,96961.63
2023-01-09T09:42:52.665Z,96956.13
2023-01-09T09:45:31.917Z,96951.66
2023-01-09T09:48:13.394Z,96953.16
2023-01-09T09:51:13.985Z,96945.19
2023-01-09T09:53:48.852Z,96944.06
2023-01-09T09:56:19.702Z,96941.06
2023-01-09T09:58:50.688Z,96944.69
2023-01-09T10:01:26.228Z,96936.47
2023-01-09T10:04:00.080Z,96931.22
2023-01-09T10:06:31.684Z,96934.47
2023-01-09T10:09:07.379Z,96927.53
2023-01-09T10:11:44.048Z,96928.53
2023-01-09T10:14:23.213Z,96926.56
2023-01-09T10:17:10.714Z,96914.13
2023-01-09T10:19:53.186Z,96912.09
2023-01-09T10:22:29.804Z,96906.66
2023-01-09T10:25:14.096Z,96901.44
2023-01-09T10:28:01.849Z,96906.50
2023-01-09T10:30:38.872Z,96902.75
2023-01-09T10:33:22.241Z,96893.28
2023-01-09T10:36:18.345Z,96896.78
2023-01-09T10:38:50.165Z,96888.56
2023-01-09T10:41:24.905Z,96894.28
2023-01-09T10:43:58.589Z,96888.03
2023-01-09T10:46:30.848Z,96881.28
2023-01-09T10:49:01.539Z,96867.78
2023-01-09T10:51:36.371Z,96865.81
2023-01-09T10:54:12.285Z,96859.78
2023-01-09T10:56:47.169Z,96857.31
2023-01-09T10:59:15.278Z,96856.56
2023-01-09T11:01:43.513Z,96861.28
2023-01-09T11:04:21.564Z,96855.28
2023-01-09T11:06:54.051Z,96845.78
2023-01-09T11:09:22.258Z,96850.00
2023-01-09T11:11:52.805Z,96841.22
2023-01-09T11:14:27.929Z,96849.44
2023-01-09T11:16:57.549Z,96851.44
2023-01-09T11:19:27.370Z,96849.94
2023-01-09T11:22:08.978Z,96843.88
2023-01-09T11:24:37.118Z,96845.88
2023-01-09T11:27:25.051Z,96839.56
2023-01-09T11:30:27.004Z,96840.53
2023-01-09T11:32:56.439Z,96833.50
2023-01-09T11:35:28.304Z,96844.19
2023-01-09T11:38:05.595Z,96847.44
2023-01-09T11:40:45.178Z,96840.16
2023-01-09T11:43:19.546Z,96839.13
2023-01-09T11:46:00.509Z,96828.09
2023-01-09T11:48:36.187Z,96833.66
2023-01-09T11:51:07.393Z,96839.16
2023-01-09T11:53:49.834Z,96837.38
2023-01-09T11:56:18.781Z,96838.81
2023-01-09T11:58:48.225Z,96831.25
2023-01-09T12:01:41.759Z,96837.97
2023-01-09T12:04:30.050Z,96832.44
2023-01-09T12:07:34.336Z,96831.66
2023-01-09T12:10:15.540Z,96837.63
2023-01-09T12:12:57.261Z,96833.59
2023-01-09T12:15:34.472Z,96833.06
2023-01-09T12:18:23.926Z,96828.81
2023-01-09T12:21:12.047Z,96831.50
2023-01-09T12:23:55.425Z,96831.09
2023-01-09T12:26:26.367Z,96832.41
2023-01-09T12:29:41.801Z,96830.09
2023-01-09T12:32:29.515Z,96831.06
2023-01-09T12:35:07.271Z,96831.78
2023-01-09T12:37:57.093Z,96830.28
2023-01-09T12:40:40.676Z,96834.50
2023-01-09T12:43:20.437Z,96831.00
2023-01-09T12:46:01.457Z,96828.94
2023-01-09T12:48:46.841Z,96826.19
2023-01-09T12:51:29.571Z,96827.59
2023-01-09T12:54:03.520Z,96834.88
2023-01-09T12:56:35.603Z,96826.28
2023-01-09T12:59:22.680Z,96833.03
2023-01-09T13:01:51.903Z,96833.94
2023-01-09T13:04:26.847Z,96823.19
2023-01-09T13:07:00.950Z,96821.41
2023-01-09T13:09:43.445Z,96822.13
2023-01-09T13:12:15.627Z,96826.88
2023-01-09T13:14:53.697Z,96824.66
2023-01-09T13:17:27.515Z,96820.34
2023-01-09T13:19:57.051Z,96818.56
2023-01-09T13:22:28.820Z,96819.59
2023-01-09T13:25:29.728Z,96827.41
2023-01-09T13:28:01.865Z,96824.34
2023-01-09T13:30:49.847Z,96823.84
2023-01-09T13:33:22.398Z,96822.56
2023-01-09T13:35:57.326Z,96814.28
2023-01-09T13:38:27.955Z,96823.38
2023-01-09T13:41:21.975Z,96827.94
2023-01-09T13:43:58.388Z,96825.66
2023-01-09T13:46:36.817Z,96833.03
2023-01-09T13:49:05.520Z,96827.63
2023-01-09T13:52:00.143Z,96842.31
2023-01-09T13:55:01.873Z,96843.34
2023-01-09T13:57:32.416Z,96845.31
2023-01-09T14:00:17.021Z,96847.06
2023-01-09T14:02:56.840Z,96854.81
2023-01-09T14:06:02.368Z,96866.34
2023-01-09T14:08:34.168Z,96866.41
2023-01-09T14:11:04.754Z,96868.44
2023-01-09T14:13:39.654Z,96868.41
2023-01-09T14:16:10.586Z,96876.44
2023-01-09T14:18:42.762Z,96883.41
2023-01-09T14:21:13.817Z,96888.19
2023-01-09T14:23:54.964Z,96897.84
2023-01-09T14:26:26.653Z,96910.28
2023-01-09T14:29:33.194Z,96908.03
2023-01-09T14:32:36.504Z,96907.78
2023-01-09T14:35:12.943Z,96909.00
2023-01-09T14:37:42.350Z,96902.25
2023-01-09T14:40:22.849Z,96897.97
2023-01-09T14:42:54.539Z,96902.47
2023-01-09T14:45:24.908Z,96901.47
2023-01-09T14:47:57.182Z,96895.19
2023-01-09T14:50:33.346Z,96899.44
2023-01-09T14:53:05.890Z,96905.19
2023-01-09T14:55:44.168Z,96902.16
2023-01-09T14:58:13.620Z,96909.38
2023-01-09T15:00:49.847Z,96897.63
2023-01-09T15:03:18.495Z,96908.16
2023-01-09T15:05:48.254Z,96905.28
2023-01-09T15:08:19.845Z,96907.97
2023-01-09T15:10:52.188Z,96914.72
2023-01-09T15:13:28.418Z,96919.16
2023-01-09T15:15:56.896Z,96907.41
2023-01-09T15:18:27.196Z,96914.91
2023-01-09T15:20:59.372Z,96915.47
2023-01-09T15:23:30.270Z,96923.97
2023-01-09T15:26:14.147Z,96929.75
2023-01-09T15:28:44.388Z,96932.25
2023-01-09T15:31:16.701Z,96940.25
2023-01-09T15:33:47.981Z,96948.00
2023-01-09T15:36:20.787Z,96960.81
2023-01-09T15:38:51.080Z,96958.56
2023-01-09T15:41:42.945Z,96961.06
2023-01-09T15:44:17.226Z,96974.53
2023-01-09T15:46:46.585Z,96977.28
2023-01-09T15:49:15.696Z,96977.31
2023-01-09T15:51:46.408Z,96994.53
2023-01-09T15:54:16.363Z,96990.78
2023-01-09T15:56:46.943Z,97008.41
2023-01-09T15:59:27.249Z,97002.19
2023-01-09T16:02:15.958Z,97007.19
2023-01-09T16:04:45.732Z,97007.78
2023-01-09T16:07:17.470Z,97001.28
2023-01-09T16:09:48.394Z,97004.03
2023-01-09T16:12:23.243Z,97001.94
2023-01-09T16:14:54.527Z,97008.13
2023-01-09T16:17:26.751Z,97016.94
2023-01-09T16:19:57.984Z,97014.03
2023-01-09T16:22:28.389Z,97019.16
2023-01-09T16:24:59.630Z,97006.97
2023-01-09T16:27:32.212Z,97017.50
2023-01-09T16:30:01.665Z,97017.56
2023-01-09T16:32:32.200Z,97018.06
2023-01-09T16:35:04.704Z,97021.53
2023-01-09T16:37:34.602Z,97012.03
2023-01-09T16:40:28.059Z,97016.28
2023-01-09T16:43:09.015Z,97005.25
2023-01-09T16:45:41.215Z,97009.28
2023-01-09T16:48:14.837Z,97007.53
2023-01-09T16:50:44.147Z,97011.25
2023-01-09T16:53:16.865Z,97022.09
2023-01-09T16:55:45.293Z,97011.97
2023-01-09T16:58:18.476Z,97028.88
2023-01-09T17:00:48.046Z,97030.41
2023-01-09T17:03:17.143Z,97018.56
2023-01-09T17:05:45.563Z,97025.13
2023-01-09T17:08:22.340Z,97026.31
2023-01-09T17:10:50.925Z,97031.00
2023-01-09T17:13:20.643Z,97045.53
2023-01-09T17:15:49.340Z,97045.31
2023-01-09T17:18:18.255Z,97046.41
2023-01-09T17:20:48.004Z,97053.91
2023-01-09T17:23:16.059Z,97053.44
2023-01-09T17:26:02.623Z,97050.81
2023-01-09T17:28:36.057Z,97056.44
2023-01-09T17:31:06.662Z,97061.19
2023-01-09T17:33:35.077Z,97070.34
2023-01-09T17:36:03.724Z,97071.31
2023-01-09T17:38:31.817Z,97069.78
2023-01-09T17:40:59.901Z,97061.56
2023-01-09T17:43:27.951Z,97072.56
2023-01-09T17:45:58.859Z,97076.09
2023-01-09T17:48:27.072Z,97082.06
2023-01-09T17:50:55.189Z,97086.44
2023-01-09T17:53:24.898Z,97083.78
2023-01-09T17:55:52.954Z,97102.03
2023-01-09T17:58:27.023Z,97096.63
2023-01-09T18:00:55.295Z,97103.66
2023-01-09T18:03:30.995Z,97100.16
2023-01-09T18:05:59.237Z,97102.91
2023-01-09T18:08:27.368Z,97103.59
2023-01-09T18:10:55.894Z,97097.63
2023-01-09T18:13:24.019Z,97093.91
2023-01-09T18:15:52.244Z,97092.69
2023-01-09T18:18:22.448Z,97098.59
2023-01-09T18:20:52.722Z,97102.91
2023-01-09T18:23:21.217Z,97105.47
2023-01-09T18:25:49.508Z,97114.72
2023-01-09T18:28:18.594Z,97113.22
2023-01-09T18:30:48.067Z,97106.97
2023-01-09T18:33:17.516Z,97109.16
2023-01-09T18:35:46.516Z,97111.63
2023-01-09T18:38:16.548Z,97121.84
2023-01-09T18:40:45.008Z,97118.44
2023-01-09T18:43:14.365Z,97122.53
2023-01-09T18:45:42.608Z,97118.81
2023-01-09T18:48:12.746Z,97123.53
2023-01-09T18:50:41.161Z,97126.53
2023-01-09T18:53:09.291Z,97122.81
2023-01-09T18:55:39.413Z,97126.09
2023-01-09T18:58:07.766Z,97131.59
2023-01-09T19:00:36.727Z,97125.66
2023-01-09T19:03:04.892Z,97137.88
2023-01-09T19:05:33.618Z,97125.16
2023-01-09T19:08:01.824Z,97133.91
2023-01-09T19:10:29.932Z,97141.66
2023-01-09T19:12:59.480Z,97131.34
2023-01-09T19:15:29.939Z,97138.09
2023-01-09T19:17:58.792Z,97133.63
2023-01-09T19:20:27.051Z,97134.53
2023-01-09T19:22:57.213Z,97135.84
2023-01-09T19:25:25.531Z,97134.97
2023-01-09T19:27:56.138Z,97136.34
2023-01-09T19:30:25.721Z,97141.69
2023-01-09T19:32:53.859Z,97140.56
2023-01-09T19:35:22.008Z,97137.09
2023-01-09T19:37:50.086Z,97144.44
2023-01-09T19:40:18.666Z,97148.78
2023-01-09T19:42:47.677Z,97141.34
2023-01-09T19:45:19.636Z,97140.94
2023-01-09T19:47:49.490Z,97145.53
2023-01-09T19:50:19.078Z,97145.25
2023-01-09T19:52:47.376Z,97153.63
2023-01-09T19:55:15.655Z,97149.22
2023-01-09T19:57:45.222Z,97156.53
2023-01-09T20:00:14.827Z,97153.53
2023-01-09T20:02:43.888Z,97154.69
2023-01-09T20:05:13.414Z,97151.66
2023-01-09T20:07:41.936Z,97155.59
2023-01-09T20:10:11.088Z,97168.06
2023-01-09T20:12:39.163Z,97171.34
2023-01-09T20:15:10.024Z,97172.31
2023-01-09T20:17:38.215Z,97176.03
2023-01-09T20:20:07.471Z,97172.44
2023-01-09T20:22:37.124Z,97169.78
2023-01-09T20:25:08.017Z,97172.00
2023-01-09T20:27:36.110Z,97169.66
2023-01-09T20:30:04.701Z,97165.91
2023-01-09T20:32:32.822Z,97162.31
2023-01-09T20:35:02.448Z,97162.59
2023-01-09T20:37:31.653Z,97164.84
2023-01-09T20:40:01.097Z,97159.41
2023-01-09T20:42:29.199Z,97154.53
2023-01-09T20:44:57.311Z,97157.34
2023-01-09T20:47:26.045Z,97159.53
2023-01-09T20:49:54.114Z,97160.38
2023-01-09T20:52:23.603Z,97156.53
2023-01-09T20:54:51.688Z,97165.06
2023-01-09T20:57:21.344Z,97165.66
2023-01-09T20:59:49.417Z,97168.38
2023-01-09T21:02:17.516Z,97177.72
2023-01-09T21:04:45.638Z,97174.53
2023-01-09T21:07:13.690Z,97181.22
2023-01-09T21:09:41.745Z,97180.25
2023-01-09T21:12:23.865Z,97180.63
2023-01-09T21:14:53.450Z,97177.28
2023-01-09T21:17:21.596Z,97172.63
2023-01-09T21:19:50.342Z,97187.63
2023-01-09T21:22:18.555Z,97180.97
2023-01-09T21:24:50.432Z,97193.78
2023-01-09T21:27:18.731Z,97195.06
2023-01-09T21:29:46.907Z,97206.47
2023-01-09T21:32:16.375Z,97206.06
2023-01-09T21:34:44.533Z,97207.06
2023-01-09T21:37:12.716Z,97208.31
2023-01-09T21:39:40.863Z,97218.16
2023-01-09T21:42:27.429Z,97221.16
2023-01-09T21:45:13.463Z,97222.56
2023-01-09T21:47:43.026Z,97226.59
2023-01-09T21:50:12.112Z,97230.16
2023-01-09T21:52:40.292Z,97241.28
2023-01-09T21:55:10.006Z,97227.47
2023-01-09T21:57:38.137Z,97232.59
2023-01-09T22:00:08.018Z,97232.72
2023-01-09T22:02:41.143Z,97234.91
2023-01-09T22:05:10.809Z,97238.72
2023-01-09T22:07:38.955Z,97245.28
2023-01-09T22:10:08.099Z,97245.53
2023-01-09T22:12:36.390Z,97243.22
2023-01-09T22:15:04.961Z,97250.84
2023-01-09T22:17:33.213Z,97260.28
2023-01-09T22:20:01.258Z,97249.78
2023-01-09T22:22:30.767Z,97246.78
2023-01-09T22:24:59.757Z,97253.00
2023-01-09T22:27:27.864Z,97247.19
2023-01-09T22:29:56.031Z,97247.38
2023-01-09T22:32:24.315Z,97262.38
2023-01-09T22:34:52.411Z,97254.91
2023-01-09T22:37:20.695Z,97258.38
2023-01-09T22:39:50.172Z,97254.94
2023-01-09T22:42:18.536Z,97258.38
2023-01-09T22:44:46.583Z,97261.06
2023-01-09T22:47:14.698Z,97257.22
2023-01-09T22:49:52.324Z,97250.59
2023-01-09T22:52:21.387Z,97260.25
2023-01-09T22:54:50.924Z,97256.56
2023-01-09T22:57:19.066Z,97257.16
2023-01-09T22:59:47.128Z,97261.19
2023-01-09T23:02:15.284Z,97252.88
2023-01-09T23:04:43.486Z,97256.66
2023-01-09T23:07:11.658Z,97260.38
2023-01-09T23:09:39.985Z,97261.22
2023-01-09T23:12:09.739Z,97259.47
2023-01-09T23:14:39.417Z,97261.16
2023-01-09T23:17:09.781Z,97259.47
2023-01-09T23:19:38.562Z,97264.50
2023-01-09T23:22:06.661Z,97260.59
2023-01-09T23:24:35.345Z,97260.72
2023-01-09T23:27:04.442Z,97270.72
2023-01-09T23:29:33.967Z,97268.25
2023-01-09T23:32:07.872Z,97254.16
2023-01-09T23:34:35.917Z,97276.66
2023-01-09T23:37:08.986Z,97262.44
2023-01-09T23:39:37.462Z,97268.41
2023-01-09T23:42:23.045Z,97272.28
2023-01-09T23:44:52.618Z,97271.41
2023-01-09T23:47:20.793Z,97278.50
2023-01-09T23:49:48.852Z,97269.03
2023-01-09T23:52:16.939Z,97281.56
2023-01-09T23:54:45.089Z,97278.03
2023-01-09T23:57:13.208Z,97284.75
2023-01-09T23:59:41.280Z,97288.22
